createdAt,value
2022-08-08T00:00:59.660Z,47.32
2022-08-08T00:03:31.590Z,47.44
2022-08-08T00:06:34.722Z,47.44
2022-08-08T00:09:43.515Z,47.79
2022-08-08T00:12:14.823Z,47.52
2022-08-08T00:15:24.188Z,47.86
2022-08-08T00:18:13.564Z,48.10
2022-08-08T00:20:56.626Z,48.05
2022-08-08T00:23:47.646Z,48.15
2022-08-08T00:26:29.466Z,48.22
2022-08-08T00:29:45.672Z,48.36
2022-08-08T00:32:35.474Z,48.48
2022-08-08T00:35:21.371Z,48.24
2022-08-08T00:38:01.204Z,48.52
2022-08-08T00:41:09.933Z,48.83
2022-08-08T00:43:24.658Z,48.61
2022-08-08T00:46:17.959Z,48.88
2022-08-08T00:49:22.821Z,48.67
2022-08-08T00:52:29.082Z,48.39
2022-08-08T00:55:35.936Z,48.32
2022-08-08T00:58:31.936Z,48.29
2022-08-08T01:01:19.632Z,48.32
2022-08-08T01:04:29.880Z,48.42
2022-08-08T01:07:11.624Z,48.41
2022-08-08T01:09:53.473Z,48.57
2022-08-08T01:12:29.792Z,48.80
2022-08-08T01:15:44.370Z,48.92
2022-08-08T01:18:52.457Z,49.04
2022-08-08T01:22:09.893Z,49.06
2022-08-08T01:24:57.246Z,49.24
2022-08-08T01:27:59.312Z,49.17
2022-08-08T01:30:26.878Z,49.04
2022-08-08T01:33:23.930Z,49.29
2022-08-08T01:36:19.523Z,49.51
2022-08-08T01:39:23.421Z,49.73
2022-08-08T01:41:59.874Z,50.03
2022-08-08T01:45:00.922Z,49.95
2022-08-08T01:48:15.046Z,49.45
2022-08-08T01:50:58.237Z,49.63
2022-08-08T01:54:33.245Z,49.90
2022-08-08T01:56:42.379Z,49.68
2022-08-08T01:59:38.061Z,50.13
2022-08-08T02:02:41.352Z,50.22
2022-08-08T02:05:33.922Z,50.52
2022-08-08T02:08:45.683Z,51.15
2022-08-08T02:11:52.875Z,51.26
2022-08-08T02:14:55.240Z,51.79
2022-08-08T02:17:54.219Z,51.71
2022-08-08T02:21:01.104Z,51.98
2022-08-08T02:23:31.786Z,51.78
2022-08-08T02:26:25.387Z,52.15
2022-08-08T02:29:46.681Z,52.07
2022-08-08T02:32:37.803Z,52.04
2022-08-08T02:35:35.791Z,51.87
2022-08-08T02:38:35.087Z,52.17
2022-08-08T02:41:58.942Z,51.99
2022-08-08T02:44:56.195Z,52.06
2022-08-08T02:48:01.942Z,52.22
2022-08-08T02:50:55.550Z,52.31
2022-08-08T02:53:53.413Z,52.46
2022-08-08T02:56:23.315Z,52.71
2022-08-08T02:59:57.181Z,52.77
2022-08-08T03:02:53.224Z,52.92
2022-08-08T03:05:58.892Z,52.79
2022-08-08T03:08:44.456Z,53.07
2022-08-08T03:11:47.716Z,53.23
2022-08-08T03:15:58.222Z,53.46
2022-08-08T03:17:39.774Z,54.03
2022-08-08T03:20:08.259Z,54.43
2022-08-08T03:22:56.969Z,54.56
2022-08-08T03:25:35.961Z,54.55
2022-08-08T03:28:07.505Z,54.86
2022-08-08T03:30:34.631Z,54.77
2022-08-08T03:33:55.109Z,54.45
2022-08-08T03:36:10.545Z,54.53
2022-08-08T03:38:56.240Z,54.67
2022-08-08T03:42:28.067Z,54.56
2022-08-08T03:44:25.560Z,54.79
2022-08-08T03:46:55.410Z,54.92
2022-08-08T03:49:59.010Z,54.48
2022-08-08T03:52:14.158Z,54.13
2022-08-08T03:55:01.779Z,54.16
2022-08-08T03:58:30.720Z,54.08
2022-08-08T04:00:19.616Z,54.04
2022-08-08T04:03:02.087Z,54.04
2022-08-08T04:05:39.959Z,54.13
2022-08-08T04:08:33.241Z,54.53
2022-08-08T04:11:11.056Z,55.30
2022-08-08T04:14:02.645Z,56.02
2022-08-08T04:16:40.071Z,56.43
2022-08-08T04:19:25.141Z,56.45
2022-08-08T04:21:54.373Z,56.24
2022-08-08T04:24:28.629Z,56.19
2022-08-08T04:26:57.509Z,56.10
2022-08-08T04:29:27.287Z,55.90
2022-08-08T04:31:58.876Z,56.06
2022-08-08T04:34:31.982Z,55.97
2022-08-08T04:37:10.669Z,56.29
2022-08-08T04:40:03.378Z,56.44
2022-08-08T04:42:27.066Z,56.46
2022-08-08T04:44:59.532Z,56.42
2022-08-08T04:47:27.345Z,56.24
2022-08-08T04:49:58.977Z,56.77
2022-08-08T04:52:33.801Z,56.46
2022-08-08T04:55:04.272Z,56.62
2022-08-08T04:57:34.439Z,56.21
2022-08-08T05:00:02.120Z,56.63
2022-08-08T05:02:30.934Z,56.81
2022-08-08T05:04:59.928Z,57.15
2022-08-08T05:07:37.687Z,57.15
2022-08-08T05:25:07.741Z,57.59
2022-08-08T05:27:41.309Z,57.72
2022-08-08T05:30:10.982Z,57.57
2022-08-08T05:32:39.354Z,57.49
2022-08-08T05:35:07.343Z,56.98
2022-08-08T05:37:53.051Z,56.90
2022-08-08T05:40:28.650Z,56.94
2022-08-08T05:43:38.628Z,56.46
2022-08-08T05:46:01.970Z,56.02
2022-08-08T05:48:32.968Z,55.66
2022-08-08T05:51:14.418Z,55.68
2022-08-08T05:56:42.522Z,55.37
2022-08-08T06:00:01.283Z,55.42
2022-08-08T06:02:39.094Z,55.14
2022-08-08T06:05:34.815Z,55.09
2022-08-08T06:08:02.181Z,55.08
2022-08-08T06:10:33.591Z,55.50
2022-08-08T06:13:01.849Z,55.41
2022-08-08T06:15:50.230Z,54.45
2022-08-08T06:18:21.967Z,52.98
2022-08-08T06:20:56.301Z,52.85
2022-08-08T06:23:29.172Z,52.70
2022-08-08T06:26:38.749Z,52.26
2022-08-08T06:29:18.681Z,52.34
2022-08-08T06:32:09.803Z,54.07
2022-08-08T06:34:40.240Z,55.79
2022-08-08T06:37:24.770Z,55.84
2022-08-08T06:39:56.960Z,56.13
2022-08-08T06:42:24.240Z,56.39
2022-08-08T06:44:53.383Z,56.47
2022-08-08T06:47:22.367Z,56.82
2022-08-08T06:49:56.735Z,57.04
2022-08-08T06:52:23.976Z,56.89
2022-08-08T06:54:58.696Z,55.68
2022-08-08T06:57:29.344Z,55.26
2022-08-08T07:00:12.838Z,53.59
2022-08-08T07:02:45.313Z,51.61
2022-08-08T07:05:24.853Z,50.69
2022-08-08T07:08:05.605Z,48.71
2022-08-08T07:10:47.625Z,47.64
2022-08-08T07:13:25.179Z,46.84
2022-08-08T07:16:10.235Z,45.60
2022-08-08T07:19:16.374Z,43.72
2022-08-08T07:22:00.531Z,43.18
2022-08-08T07:24:50.003Z,42.12
2022-08-08T07:27:35.078Z,41.35
2022-08-08T07:30:14.837Z,43.10
2022-08-08T07:32:43.842Z,42.86
2022-08-08T07:35:11.269Z,42.75
2022-08-08T07:37:56.129Z,41.51
2022-08-08T07:40:32.236Z,41.13
2022-08-08T07:43:04.219Z,40.85
2022-08-08T07:46:05.947Z,39.95
2022-08-08T07:48:29.979Z,38.81
2022-08-08T07:51:00.880Z,38.72
2022-08-08T07:54:01.459Z,38.18
2022-08-08T07:56:37.334Z,38.25
2022-08-08T07:59:15.772Z,37.32
2022-08-08T08:02:34.281Z,38.38
2022-08-08T08:04:49.422Z,37.61
2022-08-08T08:07:26.055Z,37.51
2022-08-08T08:10:03.714Z,36.92
2022-08-08T08:12:35.718Z,36.52
2022-08-08T08:15:11.965Z,37.15
2022-08-08T08:17:55.455Z,37.00
2022-08-08T08:20:29.785Z,36.03
2022-08-08T08:22:57.704Z,35.99
2022-08-08T08:25:43.720Z,35.91
2022-08-08T08:28:21.078Z,34.64
2022-08-08T08:30:50.114Z,34.50
2022-08-08T08:33:16.819Z,33.97
2022-08-08T08:36:19.379Z,33.21
2022-08-08T08:38:33.328Z,33.13
2022-08-08T08:41:01.314Z,33.43
2022-08-08T08:43:34.654Z,33.66
2022-08-08T08:46:03.329Z,32.30
2022-08-08T08:48:31.334Z,32.09
2022-08-08T08:51:01.405Z,32.05
2022-08-08T08:53:59.755Z,31.91
2022-08-08T08:56:25.271Z,31.17
2022-08-08T08:58:56.818Z,30.85
2022-08-08T09:01:28.476Z,30.38
2022-08-08T09:04:01.262Z,30.13
2022-08-08T09:06:34.354Z,30.63
2022-08-08T09:09:18.734Z,30.04
2022-08-08T09:12:02.288Z,31.49
2022-08-08T09:14:35.658Z,30.18
2022-08-08T09:17:15.732Z,31.24
2022-08-08T09:21:57.488Z,30.42
2022-08-08T09:22:35.249Z,29.19
2022-08-08T09:25:04.810Z,28.82
2022-08-08T09:27:55.743Z,28.53
2022-08-08T09:30:23.013Z,28.22
2022-08-08T09:33:12.858Z,27.62
2022-08-08T09:35:49.171Z,27.19
2022-08-08T09:38:53.211Z,27.23
2022-08-08T09:42:14.582Z,30.69
2022-08-08T09:44:46.878Z,29.67
2022-08-08T09:47:25.831Z,27.45
2022-08-08T09:50:21.252Z,28.24
2022-08-08T09:52:59.091Z,27.84
2022-08-08T09:56:05.108Z,25.63
2022-08-08T09:58:27.701Z,26.30
2022-08-08T10:01:14.558Z,24.89
2022-08-08T10:03:58.189Z,25.19
2022-08-08T10:06:30.221Z,24.62
2022-08-08T10:09:00.142Z,24.42
2022-08-08T10:12:25.949Z,25.87
2022-08-08T10:14:30.956Z,24.63
2022-08-08T10:17:57.378Z,25.53
2022-08-08T10:20:00.743Z,25.68
2022-08-08T10:22:32.342Z,25.83
2022-08-08T10:25:05.332Z,25.21
2022-08-08T10:27:42.112Z,24.51
2022-08-08T10:30:16.230Z,24.02
2022-08-08T10:33:00.338Z,23.66
2022-08-08T10:36:19.912Z,23.49
2022-08-08T10:38:19.690Z,22.80
2022-08-08T10:40:51.824Z,22.54
2022-08-08T10:43:20.008Z,23.25
2022-08-08T10:45:56.194Z,22.44
2022-08-08T10:48:58.480Z,22.36
2022-08-08T10:51:24.183Z,22.65
2022-08-08T10:53:57.103Z,21.89
2022-08-08T10:56:27.161Z,22.84
2022-08-08T10:59:08.225Z,21.81
2022-08-08T11:01:37.653Z,21.46
2022-08-08T11:04:10.524Z,20.69
2022-08-08T11:06:41.737Z,20.58
2022-08-08T11:09:19.386Z,20.13
2022-08-08T11:12:06.024Z,21.52
2022-08-08T11:14:34.799Z,21.80
2022-08-08T11:17:03.145Z,21.36
2022-08-08T11:19:34.256Z,21.09
2022-08-08T11:22:04.200Z,22.20
2022-08-08T11:24:35.831Z,20.87
2022-08-08T11:27:10.759Z,21.50
2022-08-08T11:30:04.125Z,20.52
2022-08-08T11:32:42.954Z,20.17
2022-08-08T11:35:27.337Z,21.13
2022-08-08T11:38:39.130Z,20.54
2022-08-08T11:40:52.699Z,19.34
2022-08-08T11:43:21.562Z,20.08
2022-08-08T11:46:09.753Z,20.41
2022-08-08T11:48:38.688Z,19.54
2022-08-08T11:51:29.470Z,18.88
2022-08-08T11:53:59.203Z,20.13
2022-08-08T11:56:34.534Z,20.10
2022-08-08T11:59:09.989Z,19.63
2022-08-08T12:01:37.324Z,19.97
2022-08-08T12:04:06.960Z,20.29
2022-08-08T12:06:34.067Z,19.06
2022-08-08T12:09:17.304Z,18.82
2022-08-08T12:11:49.562Z,19.09
2022-08-08T12:14:23.701Z,18.84
2022-08-08T12:16:53.336Z,18.07
2022-08-08T12:19:31.148Z,18.69
2022-08-08T12:22:08.856Z,19.28
2022-08-08T12:24:54.309Z,18.32
2022-08-08T12:27:26.659Z,17.50
2022-08-08T12:30:00.064Z,16.96
2022-08-08T12:32:34.552Z,18.09
2022-08-08T12:35:13.591Z,17.57
2022-08-08T12:37:48.182Z,17.84
2022-08-08T12:40:56.022Z,17.57
2022-08-08T12:43:46.192Z,17.14
2022-08-08T12:46:25.393Z,17.51
2022-08-08T12:51:58.432Z,17.68
2022-08-08T12:54:33.338Z,16.35
2022-08-08T12:57:17.527Z,15.35
2022-08-08T13:00:05.418Z,15.48
2022-08-08T13:02:42.041Z,14.99
2022-08-08T13:05:26.928Z,15.92
2022-08-08T13:08:20.743Z,16.88
2022-08-08T13:10:56.155Z,15.94
2022-08-08T13:13:35.128Z,15.88
2022-08-08T13:16:25.670Z,15.45
2022-08-08T13:19:00.622Z,14.45
2022-08-08T13:21:53.832Z,15.17
2022-08-08T13:24:42.228Z,15.65
2022-08-08T13:27:17.088Z,15.62
2022-08-08T13:29:54.397Z,16.45
2022-08-08T13:32:23.828Z,15.78
2022-08-08T13:34:56.419Z,15.49
2022-08-08T13:37:28.045Z,15.59
2022-08-08T13:40:18.137Z,15.20
2022-08-08T13:42:55.619Z,15.33
2022-08-08T13:45:24.378Z,14.41
2022-08-08T13:48:03.026Z,15.04
2022-08-08T13:50:43.175Z,15.36
2022-08-08T13:53:31.434Z,15.70
2022-08-08T13:56:05.410Z,16.20
2022-08-08T13:58:33.233Z,17.15
2022-08-08T14:01:32.959Z,15.84
2022-08-08T14:04:23.133Z,18.85
2022-08-08T14:06:59.267Z,17.60
2022-08-08T14:10:05.254Z,17.41
2022-08-08T14:12:30.720Z,18.29
2022-08-08T14:14:59.462Z,18.81
2022-08-08T14:17:58.105Z,18.87
2022-08-08T14:20:15.809Z,19.25
2022-08-08T14:23:30.069Z,18.33
2022-08-08T14:26:10.429Z,17.53
2022-08-08T14:28:39.740Z,18.33
2022-08-08T14:31:11.518Z,17.79
2022-08-08T14:33:57.967Z,17.41
2022-08-08T14:36:36.309Z,17.60
2022-08-08T14:39:11.757Z,17.36
2022-08-08T14:41:54.002Z,17.04
2022-08-08T14:44:33.651Z,17.16
2022-08-08T14:47:02.694Z,18.15
2022-08-08T14:50:06.759Z,19.81
2022-08-08T14:53:04.257Z,17.28
2022-08-08T14:55:42.087Z,18.70
2022-08-08T14:58:11.654Z,18.19
2022-08-08T15:00:43.390Z,18.49
2022-08-08T15:03:15.706Z,18.64
2022-08-08T15:05:54.318Z,18.19
2022-08-08T15:08:35.366Z,17.70
2022-08-08T15:11:09.064Z,18.31
2022-08-08T15:13:40.912Z,17.84
2022-08-08T15:16:23.201Z,17.86
2022-08-08T15:18:53.347Z,18.12
2022-08-08T15:21:22.693Z,17.69
2022-08-08T15:23:54.454Z,18.54
2022-08-08T15:26:25.587Z,18.69
2022-08-08T15:28:54.151Z,18.08
2022-08-08T15:31:41.537Z,18.13
2022-08-08T15:34:28.888Z,18.37
2022-08-08T15:36:58.071Z,18.17
2022-08-08T15:39:25.818Z,18.10
2022-08-08T15:41:55.530Z,18.76
2022-08-08T15:44:25.246Z,17.91
2022-08-08T15:46:54.947Z,18.99
2022-08-08T15:49:24.425Z,18.65
2022-08-08T15:51:54.916Z,18.66
2022-08-08T15:54:38.896Z,19.91
2022-08-08T15:57:09.228Z,20.44
2022-08-08T16:00:05.177Z,19.23
2022-08-08T16:02:28.858Z,18.92
2022-08-08T16:04:59.101Z,18.89
2022-08-08T16:07:39.463Z,19.66
2022-08-08T16:13:14.106Z,20.26
2022-08-08T16:13:27.675Z,19.82
2022-08-08T16:15:57.630Z,19.28
2022-08-08T16:18:27.660Z,20.23
2022-08-08T16:21:00.576Z,19.87
2022-08-08T16:23:31.893Z,19.63
2022-08-08T16:26:05.064Z,19.25
2022-08-08T16:28:41.359Z,19.58
2022-08-08T16:31:09.249Z,19.06
2022-08-08T16:33:39.176Z,19.83
2022-08-08T16:36:09.649Z,20.88
2022-08-08T16:38:40.440Z,20.82
2022-08-08T16:41:20.148Z,20.31
2022-08-08T16:43:51.232Z,19.71
2022-08-08T16:46:36.595Z,19.95
2022-08-08T16:49:08.057Z,19.92
2022-08-08T16:55:03.232Z,20.67
2022-08-08T16:55:04.693Z,20.48
2022-08-08T16:58:12.830Z,20.39
2022-08-08T17:00:09.298Z,21.03
2022-08-08T17:02:44.534Z,21.02
2022-08-08T17:05:12.883Z,21.17
2022-08-08T17:07:40.913Z,20.25
2022-08-08T17:10:09.722Z,20.59
2022-08-08T17:12:37.264Z,20.53
2022-08-08T17:15:17.933Z,21.05
2022-08-08T17:18:03.088Z,20.67
2022-08-08T17:20:39.570Z,21.14
2022-08-08T17:23:18.464Z,21.30
2022-08-08T17:25:54.161Z,20.58
2022-08-08T17:28:34.227Z,20.67
2022-08-08T17:31:15.087Z,21.19
2022-08-08T17:34:53.451Z,20.64
2022-08-08T17:36:55.151Z,20.75
2022-08-08T17:40:03.748Z,20.73
2022-08-08T17:42:19.548Z,20.71
2022-08-08T17:44:49.659Z,20.52
2022-08-08T17:47:23.774Z,21.10
2022-08-08T17:49:52.601Z,21.13
2022-08-08T17:52:23.171Z,21.16
2022-08-08T17:54:55.858Z,21.58
2022-08-08T17:57:28.848Z,21.46
2022-08-08T18:00:02.415Z,21.37
2022-08-08T18:02:30.043Z,21.43
2022-08-08T18:04:58.781Z,21.71
2022-08-08T18:08:04.011Z,22.00
2022-08-08T18:10:16.715Z,22.40
2022-08-08T18:12:45.937Z,23.32
2022-08-08T18:15:13.582Z,22.90
2022-08-08T18:18:09.061Z,23.24
2022-08-08T18:20:43.132Z,23.94
2022-08-08T18:23:15.294Z,23.59
2022-08-08T18:25:43.108Z,24.08
2022-08-08T18:28:13.731Z,23.88
2022-08-08T18:30:41.534Z,23.99
2022-08-08T18:33:20.291Z,24.82
2022-08-08T18:36:02.999Z,25.51
2022-08-08T18:38:30.057Z,24.55
2022-08-08T18:40:56.613Z,24.94
2022-08-08T18:43:43.215Z,24.91
2022-08-08T18:46:56.351Z,25.04
2022-08-08T18:48:57.891Z,26.54
2022-08-08T18:51:52.743Z,27.55
2022-08-08T18:54:22.410Z,27.85
2022-08-08T18:56:51.351Z,28.42
2022-08-08T18:59:17.916Z,28.70
2022-08-08T19:02:26.846Z,28.72
2022-08-08T19:04:32.297Z,29.22
2022-08-08T19:07:02.961Z,29.51
2022-08-08T19:09:48.931Z,30.63
2022-08-08T19:12:17.565Z,30.72
2022-08-08T19:14:46.745Z,31.17
2022-08-08T19:17:29.261Z,31.99
2022-08-08T19:20:02.524Z,31.87
2022-08-08T19:22:30.011Z,32.54
2022-08-08T19:26:01.610Z,32.69
2022-08-08T19:27:56.847Z,32.85
2022-08-08T19:30:27.084Z,33.31
2022-08-08T19:33:00.619Z,33.11
2022-08-08T19:35:45.206Z,33.03
2022-08-08T19:38:16.454Z,32.55
2022-08-08T19:40:44.138Z,32.45
2022-08-08T19:43:12.024Z,33.54
2022-08-08T19:45:57.291Z,33.62
2022-08-08T19:48:30.840Z,34.35
2022-08-08T19:51:01.502Z,34.35
2022-08-08T19:53:53.223Z,34.21
2022-08-08T19:56:25.923Z,34.33
2022-08-08T19:59:08.072Z,34.44
2022-08-08T20:02:01.365Z,34.27
2022-08-08T20:04:22.422Z,34.38
2022-08-08T20:06:50.869Z,34.81
2022-08-08T20:09:22.643Z,34.32
2022-08-08T20:11:50.665Z,33.83
2022-08-08T20:14:34.755Z,34.01
2022-08-08T20:17:04.294Z,34.26
2022-08-08T20:19:34.334Z,34.24
2022-08-08T20:22:13.352Z,34.06
2022-08-08T20:24:47.985Z,33.95
2022-08-08T20:27:20.511Z,34.10
2022-08-08T20:29:55.642Z,34.13
2022-08-08T20:32:31.796Z,34.04
2022-08-08T20:35:02.521Z,34.11
2022-08-08T20:37:46.775Z,34.71
2022-08-08T20:40:17.619Z,34.39
2022-08-08T20:43:00.602Z,34.59
2022-08-08T20:45:55.218Z,34.79
2022-08-08T20:48:15.823Z,34.58
2022-08-08T20:50:47.748Z,34.70
2022-08-08T20:53:16.670Z,34.84
2022-08-08T20:56:01.368Z,34.70
2022-08-08T20:58:28.294Z,34.87
2022-08-08T21:00:57.336Z,34.79
2022-08-08T21:03:23.920Z,34.35
2022-08-08T21:05:58.993Z,34.71
2022-08-08T21:08:36.913Z,34.44
2022-08-08T21:11:13.363Z,34.81
2022-08-08T21:13:41.154Z,35.24
2022-08-08T21:16:18.134Z,34.94
2022-08-08T21:18:57.267Z,35.06
2022-08-08T21:21:41.387Z,35.10
2022-08-08T21:24:24.068Z,35.16
2022-08-08T21:26:56.650Z,35.24
2022-08-08T21:30:05.432Z,35.18
2022-08-08T21:32:14.372Z,35.50
2022-08-08T21:34:49.579Z,36.25
2022-08-08T21:37:18.966Z,35.63
2022-08-08T21:39:56.461Z,35.94
2022-08-08T21:42:23.953Z,35.67
2022-08-08T21:44:58.833Z,36.10
2022-08-08T21:48:07.163Z,35.82
2022-08-08T21:50:14.321Z,36.09
2022-08-08T21:54:22.983Z,36.28
2022-08-08T21:56:20.160Z,36.50
2022-08-08T21:58:14.894Z,36.49
2022-08-08T22:00:44.050Z,36.60
2022-08-08T22:03:11.166Z,36.58
2022-08-08T22:05:42.185Z,36.79
2022-08-08T22:08:09.385Z,36.56
2022-08-08T22:10:37.732Z,36.89
2022-08-08T22:13:18.817Z,37.05
2022-08-08T22:15:58.604Z,36.88
2022-08-08T22:18:27.580Z,37.40
2022-08-08T22:20:55.792Z,37.69
2022-08-08T22:23:25.303Z,37.74
2022-08-08T22:26:27.192Z,37.69
2022-08-08T22:29:04.576Z,37.82
2022-08-08T22:31:29.703Z,38.39
2022-08-08T22:34:13.841Z,38.53
2022-08-08T22:36:42.938Z,38.56
2022-08-08T22:39:18.918Z,38.99
2022-08-08T22:41:46.128Z,39.32
2022-08-08T22:44:15.894Z,39.23
2022-08-08T22:46:42.737Z,39.50
2022-08-08T22:49:12.471Z,39.73
2022-08-08T22:51:46.692Z,39.94
2022-08-08T22:54:30.676Z,40.00
2022-08-08T22:57:01.158Z,40.36
2022-08-08T22:59:36.348Z,40.55
2022-08-08T23:02:14.428Z,40.69
2022-08-08T23:04:58.541Z,40.80
2022-08-08T23:07:51.370Z,41.15
2022-08-08T23:10:21.286Z,41.32
2022-08-08T23:12:51.706Z,41.48
2022-08-08T23:16:37.815Z,41.52
2022-08-08T23:18:11.789Z,41.77
2022-08-08T23:20:39.342Z,41.86
2022-08-08T23:23:05.910Z,41.74
2022-08-08T23:25:45.067Z,41.79
2022-08-08T23:28:14.322Z,41.95
2022-08-08T23:30:41.947Z,42.09
2022-08-08T23:33:19.063Z,42.33
2022-08-08T23:36:06.683Z,42.83
2022-08-08T23:38:34.315Z,42.64
2022-08-08T23:41:00.869Z,42.68
2022-08-08T23:43:31.599Z,42.79
2022-08-08T23:49:07.122Z,43.28
2022-08-08T23:49:18.170Z,43.48
2022-08-08T23:52:05.840Z,43.55
2022-08-08T23:54:41.696Z,43.77
2022-08-08T23:57:26.887Z,43.73
